createdAt,value
2023-01-11T00:00:47.622Z,98129.22
2023-01-11T00:03:15.056Z,98132.38
2023-01-11T00:05:43.710Z,98117.91
2023-01-11T00:08:10.533Z,98114.16
2023-01-11T00:10:37.571Z,98104.13
2023-01-11T00:13:04.566Z,98106.31
2023-01-11T00:15:31.350Z,98103.63
2023-01-11T00:17:58.090Z,98101.47
2023-01-11T00:20:24.983Z,98098.09
2023-01-11T00:22:51.857Z,98098.59
2023-01-11T00:25:18.567Z,98097.84
2023-01-11T00:27:47.181Z,98102.28
2023-01-11T00:30:14.082Z,98096.84
2023-01-11T00:32:40.799Z,98090.19
2023-01-11T00:35:08.444Z,98091.38
2023-01-11T00:37:35.487Z,98095.25
2023-01-11T00:40:02.120Z,98090.31
2023-01-11T00:42:47.341Z,98087.03
2023-01-11T00:45:32.665Z,98086.00
2023-01-11T00:48:04.794Z,98096.28
2023-01-11T00:50:34.401Z,98085.28
2023-01-11T00:53:01.496Z,98080.63
2023-01-11T00:55:28.315Z,98074.94
2023-01-11T00:57:55.085Z,98092.22
2023-01-11T01:00:22.275Z,98077.59
2023-01-11T01:02:49.979Z,98077.88
2023-01-11T01:05:17.327Z,98080.00
2023-01-11T01:07:44.390Z,98087.34
2023-01-11T01:10:13.413Z,98087.84
2023-01-11T01:12:58.697Z,98083.19
2023-01-11T01:15:26.303Z,98078.78
2023-01-11T01:17:55.003Z,98078.03
2023-01-11T01:20:23.213Z,98073.38
2023-01-11T01:22:50.070Z,98081.22
2023-01-11T01:25:16.763Z,98076.78
2023-01-11T01:27:43.511Z,98074.56
2023-01-11T01:30:10.859Z,98075.28
2023-01-11T01:32:37.491Z,98080.22
2023-01-11T01:35:04.534Z,98077.97
2023-01-11T01:37:31.177Z,98075.72
2023-01-11T01:39:57.804Z,98075.72
2023-01-11T01:42:24.526Z,98080.38
2023-01-11T01:45:06.997Z,98080.06
2023-01-11T01:47:47.601Z,98073.75
2023-01-11T01:50:37.135Z,98084.44
2023-01-11T01:53:19.017Z,98074.47
2023-01-11T01:55:51.519Z,98075.28
2023-01-11T01:58:19.617Z,98073.16
2023-01-11T02:00:46.329Z,98066.31
2023-01-11T02:03:19.196Z,98061.19
2023-01-11T02:05:46.233Z,98058.31
2023-01-11T02:08:19.588Z,98053.16
2023-01-11T02:10:46.716Z,98052.88
2023-01-11T02:13:14.512Z,98051.41
2023-01-11T02:15:41.309Z,98052.59
2023-01-11T02:18:13.140Z,98047.88
2023-01-11T02:21:41.438Z,98039.56
2023-01-11T02:24:35.640Z,98044.16
2023-01-11T02:27:24.469Z,98045.41
2023-01-11T02:31:04.821Z,98045.38
2023-01-11T02:33:51.153Z,98041.66
2023-01-11T02:39:31.141Z,98029.28
2023-01-11T02:42:44.923Z,98032.03
2023-01-11T02:45:47.203Z,98029.97
2023-01-11T02:48:26.558Z,98024.13
2023-01-11T02:51:13.249Z,98029.50
2023-01-11T02:53:49.280Z,98023.06
2023-01-11T02:56:25.582Z,98026.19
2023-01-11T02:58:55.142Z,98027.59
2023-01-11T03:01:22.875Z,98025.41
2023-01-11T03:03:50.544Z,98032.56
2023-01-11T03:06:21.808Z,98022.75
2023-01-11T03:09:20.512Z,98023.50
2023-01-11T03:12:52.287Z,98026.75
2023-01-11T03:16:04.100Z,98011.16
2023-01-11T03:18:48.571Z,98012.56
2023-01-11T03:22:02.436Z,98012.81
2023-01-11T03:25:12.165Z,98007.19
2023-01-11T03:28:21.100Z,98001.31
2023-01-11T03:31:02.331Z,98000.41
2023-01-11T03:33:39.631Z,98002.63
2023-01-11T03:36:24.609Z,98002.13
2023-01-11T03:39:00.888Z,97992.13
2023-01-11T03:41:32.490Z,97995.78
2023-01-11T03:44:01.579Z,97989.88
2023-01-11T03:46:33.597Z,97996.47
2023-01-11T03:49:13.271Z,97998.16
2023-01-11T03:51:44.700Z,97987.19
2023-01-11T03:54:16.202Z,97988.63
2023-01-11T03:57:16.326Z,97984.47
2023-01-11T03:59:43.251Z,97980.59
2023-01-11T04:02:26.638Z,97979.91
2023-01-11T04:04:53.770Z,97980.88
2023-01-11T04:07:20.732Z,97975.72
2023-01-11T04:09:47.362Z,97975.94
2023-01-11T04:12:13.968Z,97978.41
2023-01-11T04:14:40.590Z,97972.28
2023-01-11T04:17:07.208Z,97982.59
2023-01-11T04:19:33.927Z,97975.97
2023-01-11T04:22:00.569Z,97981.13
2023-01-11T04:24:27.229Z,97976.50
2023-01-11T04:26:54.277Z,97976.50
2023-01-11T04:29:20.814Z,97976.50
2023-01-11T04:31:47.481Z,97975.53
2023-01-11T04:34:14.323Z,97988.75
2023-01-11T04:36:41.243Z,97985.81
2023-01-11T04:39:10.646Z,97989.00
2023-01-11T04:41:56.600Z,97987.78
2023-01-11T04:44:23.445Z,97994.91
2023-01-11T04:46:50.486Z,97999.56
2023-01-11T04:49:17.143Z,97996.09
2023-01-11T04:51:43.787Z,98010.78
2023-01-11T04:54:11.392Z,97995.41
2023-01-11T04:56:38.124Z,97986.84
2023-01-11T04:59:04.750Z,97964.31
2023-01-11T05:01:31.399Z,97962.13
2023-01-11T05:03:58.208Z,97963.13
2023-01-11T05:06:25.791Z,97984.41
2023-01-11T05:08:52.475Z,97975.13
2023-01-11T05:11:19.177Z,97994.47
2023-01-11T05:13:45.964Z,97981.75
2023-01-11T05:16:20.714Z,97986.91
2023-01-11T05:18:55.530Z,97976.84
2023-01-11T05:21:24.631Z,97981.00
2023-01-11T05:23:52.004Z,97974.88
2023-01-11T05:26:23.132Z,97973.66
2023-01-11T05:28:51.223Z,97971.91
2023-01-11T05:31:18.635Z,97973.41
2023-01-11T05:33:45.888Z,97973.44
2023-01-11T05:36:24.185Z,97968.75
2023-01-11T05:38:52.560Z,97968.53
2023-01-11T05:41:21.850Z,97967.78
2023-01-11T05:44:08.937Z,97960.69
2023-01-11T05:46:37.099Z,97965.81
2023-01-11T05:49:04.910Z,97968.25
2023-01-11T05:51:32.767Z,97973.13
2023-01-11T05:54:00.679Z,97967.72
2023-01-11T05:56:27.875Z,97967.94
2023-01-11T05:58:55.002Z,97963.56
2023-01-11T06:01:23.332Z,97958.63
2023-01-11T06:03:50.613Z,97955.75
2023-01-11T06:06:19.014Z,97960.88
2023-01-11T06:08:45.826Z,97959.19
2023-01-11T06:11:12.462Z,97959.69
2023-01-11T06:13:39.099Z,97955.28
2023-01-11T06:16:09.527Z,97962.66
2023-01-11T06:18:41.475Z,97964.09
2023-01-11T06:21:09.167Z,97959.97
2023-01-11T06:23:38.646Z,97954.56
2023-01-11T06:26:09.009Z,97953.34
2023-01-11T06:28:36.752Z,97956.78
2023-01-11T06:31:04.751Z,97952.38
2023-01-11T06:33:32.260Z,97956.78
2023-01-11T06:36:02.328Z,97957.78
2023-01-11T06:38:28.961Z,97956.78
2023-01-11T06:40:58.192Z,97957.75
2023-01-11T06:43:25.511Z,97954.81
2023-01-11T06:45:52.787Z,97956.03
2023-01-11T06:48:20.885Z,97951.88
2023-01-11T06:50:52.169Z,97947.97
2023-01-11T06:53:18.911Z,97946.47
2023-01-11T06:55:50.155Z,97945.50
2023-01-11T06:58:16.968Z,97943.78
2023-01-11T07:00:43.826Z,97948.47
2023-01-11T07:03:11.544Z,97941.09
2023-01-11T07:05:38.308Z,97943.31
2023-01-11T07:08:05.199Z,97934.00
2023-01-11T07:10:31.962Z,97947.22
2023-01-11T07:12:58.576Z,97949.69
2023-01-11T07:15:25.261Z,97959.72
2023-01-11T07:17:59.786Z,97958.25
2023-01-11T07:20:27.143Z,97963.63
2023-01-11T07:22:58.534Z,97961.69
2023-01-11T07:25:27.611Z,97959.47
2023-01-11T07:28:02.005Z,97957.75
2023-01-11T07:30:31.376Z,97956.78
2023-01-11T07:32:59.247Z,97950.88
2023-01-11T07:35:28.904Z,97951.16
2023-01-11T07:37:55.692Z,97942.03
2023-01-11T07:40:22.400Z,97937.41
2023-01-11T07:43:13.688Z,97936.16
2023-01-11T07:45:47.079Z,97941.84
2023-01-11T07:48:14.791Z,97939.63
2023-01-11T07:50:44.487Z,97940.88
2023-01-11T07:53:11.635Z,97935.22
2023-01-11T07:55:39.707Z,97943.06
2023-01-11T07:58:07.310Z,97946.50
2023-01-11T08:00:33.950Z,97940.34
2023-01-11T08:03:01.152Z,97945.72
2023-01-11T08:05:28.435Z,97940.84
2023-01-11T08:07:55.080Z,97936.44
2023-01-11T08:10:21.703Z,97924.63
2023-01-11T08:13:07.589Z,97921.94
2023-01-11T08:15:36.694Z,97928.78
2023-01-11T08:18:06.620Z,97925.63
2023-01-11T08:20:33.459Z,97926.09
2023-01-11T08:23:08.160Z,97927.81
2023-01-11T08:25:35.367Z,97932.91
2023-01-11T08:28:04.450Z,97931.94
2023-01-11T08:30:31.127Z,97934.16
2023-01-11T08:33:00.212Z,97929.75
2023-01-11T08:35:26.929Z,97927.28
2023-01-11T08:37:53.583Z,97933.16
2023-01-11T08:40:23.570Z,97932.41
2023-01-11T08:42:54.798Z,97932.66
2023-01-11T08:45:21.560Z,97939.31
2023-01-11T08:47:48.862Z,97940.03
2023-01-11T08:50:17.276Z,97944.44
2023-01-11T08:52:44.430Z,97943.47
2023-01-11T08:55:11.046Z,97936.09
2023-01-11T08:57:38.123Z,97937.09
2023-01-11T09:00:07.426Z,97941.47
2023-01-11T09:02:34.348Z,97939.75
2023-01-11T09:05:01.000Z,97935.28
2023-01-11T09:07:27.647Z,97935.31
2023-01-11T09:09:54.288Z,97936.75
2023-01-11T09:12:21.118Z,97934.03
2023-01-11T09:14:47.798Z,97938.88
2023-01-11T09:17:14.441Z,97935.63
2023-01-11T09:19:41.088Z,97928.19
2023-01-11T09:22:07.679Z,97933.19
2023-01-11T09:24:34.325Z,97936.09
2023-01-11T09:27:01.222Z,97930.94
2023-01-11T09:29:28.023Z,97938.47
2023-01-11T09:31:54.741Z,97927.91
2023-01-11T09:34:21.656Z,97927.56
2023-01-11T09:36:49.045Z,97928.50
2023-01-11T09:39:18.793Z,97921.63
2023-01-11T09:42:24.329Z,97917.59
2023-01-11T09:44:56.798Z,97916.38
2023-01-11T09:47:45.042Z,97908.78
2023-01-11T09:50:16.571Z,97906.03
2023-01-11T09:52:47.529Z,97907.94
2023-01-11T09:55:25.154Z,97895.59
2023-01-11T09:58:07.592Z,97894.97
2023-01-11T10:01:10.555Z,97897.19
2023-01-11T10:04:16.042Z,97879.16
2023-01-11T10:07:16.708Z,97873.69
2023-01-11T10:18:29.798Z,97850.16
2023-01-11T10:20:40.206Z,97862.03
2023-01-11T10:23:18.017Z,97844.53
2023-01-11T10:25:54.940Z,97843.81
2023-01-11T10:32:15.365Z,97828.72
2023-01-11T10:35:00.935Z,97823.06
2023-01-11T10:37:48.219Z,97815.97
2023-01-11T10:43:24.283Z,97811.53
2023-01-11T10:45:58.079Z,97807.53
2023-01-11T10:48:33.946Z,97792.19
2023-01-11T10:51:32.381Z,97793.00
2023-01-11T10:54:14.415Z,97789.91
2023-01-11T10:57:22.813Z,97777.22
2023-01-11T11:00:36.132Z,97780.50
2023-01-11T11:03:28.897Z,97775.22
2023-01-11T11:06:10.487Z,97758.47
2023-01-11T11:09:07.188Z,97767.34
2023-01-11T11:11:41.451Z,97757.66
2023-01-11T11:14:39.711Z,97748.09
2023-01-11T11:17:26.275Z,97751.09
2023-01-11T11:19:53.302Z,97744.34
2023-01-11T11:22:22.561Z,97740.81
2023-01-11T11:24:55.034Z,97740.41
2023-01-11T11:27:40.231Z,97740.63
2023-01-11T11:30:11.289Z,97738.13
2023-01-11T11:32:42.744Z,97740.69
2023-01-11T11:35:40.622Z,97745.09
2023-01-11T11:38:18.548Z,97740.75
2023-01-11T11:40:58.484Z,97741.34
2023-01-11T11:43:27.261Z,97737.91
2023-01-11T11:45:57.040Z,97734.69
2023-01-11T11:48:25.519Z,97726.81
2023-01-11T11:50:55.271Z,97718.78
2023-01-11T11:53:46.157Z,97716.16
2023-01-11T11:56:20.893Z,97709.72
2023-01-11T11:58:48.131Z,97704.06
2023-01-11T12:01:24.774Z,97702.38
2023-01-11T12:03:54.678Z,97697.50
2023-01-11T12:06:27.768Z,97695.75
2023-01-11T12:08:56.451Z,97694.06
2023-01-11T12:11:30.594Z,97693.53
2023-01-11T12:14:03.644Z,97683.94
2023-01-11T12:16:35.501Z,97696.88
2023-01-11T12:19:02.196Z,97693.03
2023-01-11T12:21:30.320Z,97680.25
2023-01-11T12:24:22.332Z,97678.47
2023-01-11T12:27:12.253Z,97668.81
2023-01-11T12:30:24.573Z,97670.91
2023-01-11T12:33:37.974Z,97666.63
2023-01-11T12:36:36.773Z,97660.91
2023-01-11T12:39:45.690Z,97639.97
2023-01-11T12:42:50.468Z,97638.19
2023-01-11T12:45:44.933Z,97627.88
2023-01-11T12:48:42.494Z,97621.63
2023-01-11T12:51:39.519Z,97617.88
2023-01-11T12:58:20.496Z,97605.50
2023-01-11T13:26:50.928Z,97573.88
2023-01-11T13:29:37.193Z,97572.84
2023-01-11T13:32:16.807Z,97576.19
2023-01-11T13:35:13.647Z,97579.41
2023-01-11T13:38:03.934Z,97567.44
2023-01-11T13:40:38.553Z,97566.31
2023-01-11T13:43:39.910Z,97571.59
2023-01-11T13:50:02.635Z,97558.06
2023-01-11T13:52:55.225Z,97560.78
2023-01-11T13:55:55.051Z,97554.75
2023-01-11T13:58:29.111Z,97562.06
2023-01-11T14:01:14.638Z,97572.56
2023-01-11T14:03:52.547Z,97559.53
2023-01-11T14:10:19.953Z,97564.16
2023-01-11T14:13:43.955Z,97564.97
2023-01-11T14:16:30.034Z,97561.63
2023-01-11T14:19:50.995Z,97570.78
2023-01-11T14:22:54.605Z,97576.00
2023-01-11T14:25:27.071Z,97556.53
2023-01-11T14:28:23.922Z,97562.97
2023-01-11T14:31:29.233Z,97551.63
2023-01-11T14:34:11.112Z,97551.03
2023-01-11T14:37:30.148Z,97571.63
2023-01-11T14:40:18.674Z,97564.66
2023-01-11T15:17:36.253Z,97578.19
2023-01-11T15:20:13.964Z,97585.25
2023-01-11T15:22:41.226Z,97583.66
2023-01-11T15:25:33.788Z,97572.41
2023-01-11T15:28:25.158Z,97550.56
2023-01-11T15:30:52.194Z,97592.06
2023-01-11T15:33:28.382Z,97574.31
2023-01-11T15:36:13.073Z,97580.63
2023-01-11T15:39:05.593Z,97601.41
2023-01-11T15:42:11.176Z,97595.47
2023-01-11T15:45:11.730Z,97613.75
2023-01-11T15:48:16.535Z,97595.72
2023-01-11T15:51:03.374Z,97605.34
2023-01-11T15:54:08.940Z,97620.69
2023-01-11T15:56:57.561Z,97626.41
2023-01-11T16:00:06.303Z,97638.34
2023-01-11T16:03:21.009Z,97637.31
2023-01-11T16:06:33.531Z,97673.59
2023-01-11T16:09:41.939Z,97678.25
2023-01-11T16:12:48.909Z,97676.28
2023-01-11T16:15:38.281Z,97666.34
2023-01-11T16:18:13.027Z,97691.13
2023-01-11T16:20:42.108Z,97685.59
2023-01-11T16:23:18.599Z,97683.81
2023-01-11T16:25:46.592Z,97683.09
2023-01-11T16:28:19.090Z,97676.88
2023-01-11T16:30:46.899Z,97683.44
2023-01-11T16:33:20.575Z,97684.84
2023-01-11T16:35:47.286Z,97681.63
2023-01-11T16:38:19.592Z,97673.72
2023-01-11T16:40:50.307Z,97683.69
2023-01-11T16:43:26.663Z,97674.31
2023-01-11T16:45:54.631Z,97666.00
2023-01-11T16:48:26.120Z,97675.28
2023-01-11T16:51:19.415Z,97673.88
2023-01-11T16:53:57.832Z,97673.16
2023-01-11T16:56:25.070Z,97664.53
2023-01-11T16:59:21.602Z,97664.31
2023-01-11T17:01:56.330Z,97659.41
2023-01-11T17:04:38.505Z,97649.81
2023-01-11T17:07:14.174Z,97651.06
2023-01-11T17:09:43.722Z,97648.81
2023-01-11T17:12:17.343Z,97645.81
2023-01-11T17:15:16.524Z,97644.25
2023-01-11T17:17:43.427Z,97645.44
2023-01-11T17:20:20.138Z,97648.56
2023-01-11T17:22:49.744Z,97645.78
2023-01-11T17:25:27.623Z,97652.13
2023-01-11T17:28:19.181Z,97643.34
2023-01-11T17:30:48.795Z,97655.81
2023-01-11T17:33:28.371Z,97658.16
2023-01-11T17:35:55.521Z,97657.63
2023-01-11T17:38:26.051Z,97653.59
2023-01-11T17:40:56.485Z,97663.63
2023-01-11T17:43:47.343Z,97659.16
2023-01-11T17:46:18.693Z,97665.84
2023-01-11T17:48:57.065Z,97669.72
2023-01-11T17:51:26.374Z,97662.94
2023-01-11T17:53:53.394Z,97666.69
2023-01-11T17:56:37.927Z,97668.25
2023-01-11T17:59:23.381Z,97670.53
2023-01-11T18:01:57.692Z,97674.81
2023-01-11T18:04:26.414Z,97668.16
2023-01-11T18:06:55.601Z,97659.78
2023-01-11T18:09:24.542Z,97664.56
2023-01-11T18:11:53.103Z,97665.09
2023-01-11T18:14:23.339Z,97670.06
2023-01-11T18:17:02.209Z,97673.94
2023-01-11T18:19:42.791Z,97679.16
2023-01-11T18:22:31.398Z,97689.56
2023-01-11T18:25:00.201Z,97693.81
2023-01-11T18:27:34.575Z,97700.38
2023-01-11T18:30:06.242Z,97692.03
2023-01-11T18:32:41.852Z,97698.34
2023-01-11T18:35:26.708Z,97696.25
2023-01-11T18:37:53.412Z,97712.38
2023-01-11T18:40:21.533Z,97706.03
2023-01-11T18:42:52.915Z,97713.31
2023-01-11T18:45:20.370Z,97712.50
2023-01-11T18:47:47.081Z,97715.00
2023-01-11T18:50:13.959Z,97725.53
2023-01-11T18:52:40.766Z,97727.41
2023-01-11T18:55:10.875Z,97732.09
2023-01-11T18:57:37.546Z,97731.72
2023-01-11T19:00:04.748Z,97739.41
2023-01-11T19:02:42.854Z,97731.72
2023-01-11T19:05:15.706Z,97734.13
2023-01-11T19:07:42.398Z,97725.88
2023-01-11T19:10:10.862Z,97741.13
2023-01-11T19:12:37.516Z,97737.56
2023-01-11T19:15:04.532Z,97742.47
2023-01-11T19:17:31.947Z,97744.47
2023-01-11T19:19:58.615Z,97751.03
2023-01-11T19:22:26.677Z,97750.72
2023-01-11T19:24:54.599Z,97750.31
2023-01-11T19:27:21.952Z,97760.13
2023-01-11T19:29:48.656Z,97766.75
2023-01-11T19:32:17.274Z,97772.41
2023-01-11T19:34:43.959Z,97776.28
2023-01-11T19:37:10.870Z,97785.13
2023-01-11T19:39:37.566Z,97793.50
2023-01-11T19:42:04.431Z,97794.94
2023-01-11T19:44:33.910Z,97793.50
2023-01-11T19:47:11.181Z,97799.84
2023-01-11T19:49:39.624Z,97798.81
2023-01-11T19:52:13.393Z,97797.59
2023-01-11T19:54:44.006Z,97805.53
2023-01-11T19:57:18.769Z,97817.19
2023-01-11T19:59:45.423Z,97816.88
2023-01-11T20:02:13.258Z,97822.31
2023-01-11T20:04:40.920Z,97826.78
2023-01-11T20:07:08.826Z,97829.22
2023-01-11T20:09:38.623Z,97829.28
2023-01-11T20:12:07.009Z,97830.25
2023-01-11T20:14:34.264Z,97835.16
2023-01-11T20:17:01.102Z,97834.44
2023-01-11T20:19:27.904Z,97834.13
2023-01-11T20:21:55.880Z,97844.88
2023-01-11T20:24:28.351Z,97855.09
2023-01-11T20:26:56.226Z,97853.41
2023-01-11T20:29:22.853Z,97859.47
2023-01-11T20:31:49.638Z,97850.81
2023-01-11T20:34:17.526Z,97851.75
2023-01-11T20:36:44.912Z,97857.19
2023-01-11T20:39:11.806Z,97856.56
2023-01-11T20:41:47.758Z,97853.00
2023-01-11T20:44:20.248Z,97853.31
2023-01-11T20:46:48.428Z,97856.75
2023-01-11T20:49:16.080Z,97850.50
2023-01-11T20:51:43.464Z,97850.28
2023-01-11T20:54:10.745Z,97854.25
2023-01-11T20:56:38.613Z,97857.38
2023-01-11T20:59:07.416Z,97854.97
2023-01-11T21:01:34.555Z,97847.56
2023-01-11T21:04:04.043Z,97858.56
2023-01-11T21:06:32.262Z,97857.72
2023-01-11T21:09:00.702Z,97864.59
2023-01-11T21:11:28.274Z,97872.13
2023-01-11T21:13:55.856Z,97871.41
2023-01-11T21:16:24.581Z,97878.56
2023-01-11T21:18:56.634Z,97870.53
2023-01-11T21:21:24.059Z,97872.53
2023-01-11T21:23:54.527Z,97877.53
2023-01-11T21:26:22.374Z,97880.97
2023-01-11T21:29:07.409Z,97883.56
2023-01-11T21:31:36.125Z,97886.81
2023-01-11T21:34:03.903Z,97892.47
2023-01-11T21:36:31.807Z,97899.38
2023-01-11T21:38:59.697Z,97892.66
2023-01-11T21:41:46.805Z,97901.06
2023-01-11T21:44:14.702Z,97893.41
2023-01-11T21:46:41.798Z,97897.16
2023-01-11T21:49:08.860Z,97891.22
2023-01-11T21:51:35.639Z,97899.38
2023-01-11T21:54:07.862Z,97896.84
2023-01-11T21:56:34.981Z,97895.38
2023-01-11T21:59:02.213Z,97898.53
2023-01-11T22:01:29.212Z,97904.59
2023-01-11T22:03:56.205Z,97899.38
2023-01-11T22:06:22.931Z,97903.66
2023-01-11T22:08:49.700Z,97904.38
2023-01-11T22:11:17.528Z,97909.81
2023-01-11T22:13:44.657Z,97904.06
2023-01-11T22:16:14.583Z,97907.84
2023-01-11T22:18:42.508Z,97908.78
2023-01-11T22:21:17.969Z,97909.50
2023-01-11T22:23:46.895Z,97909.31
2023-01-11T22:26:17.046Z,97907.31
2023-01-11T22:29:03.978Z,97909.81
2023-01-11T22:31:31.797Z,97913.13
2023-01-11T22:33:58.824Z,97915.66
2023-01-11T22:36:26.528Z,97919.22
2023-01-11T22:38:54.140Z,97919.81
2023-01-11T22:41:21.031Z,97916.91
2023-01-11T22:43:48.081Z,97916.91
2023-01-11T22:46:16.819Z,97924.09
2023-01-11T22:48:43.572Z,97920.78
2023-01-11T22:51:11.458Z,97926.22
2023-01-11T22:53:42.404Z,97931.13
2023-01-11T22:56:10.620Z,97934.25
2023-01-11T22:58:37.746Z,97932.38
2023-01-11T23:01:37.523Z,97929.22
2023-01-11T23:04:05.675Z,97929.22
2023-01-11T23:06:34.935Z,97926.69
2023-01-11T23:09:01.827Z,97929.94
2023-01-11T23:11:49.174Z,97932.78
2023-01-11T23:14:18.997Z,97928.50
2023-01-11T23:16:47.041Z,97930.38
2023-01-11T23:19:16.169Z,97933.84
2023-01-11T23:21:44.750Z,97926.63
2023-01-11T23:24:13.458Z,97931.84
2023-01-11T23:26:40.967Z,97932.13
2023-01-11T23:29:07.784Z,97942.94
2023-01-11T23:31:35.177Z,97935.09
2023-01-11T23:34:03.131Z,97931.41
2023-01-11T23:36:35.020Z,97931.28
2023-01-11T23:39:02.078Z,97933.91
2023-01-11T23:41:47.277Z,97942.78
2023-01-11T23:44:16.857Z,97944.25
2023-01-11T23:47:03.458Z,97946.78
2023-01-11T23:49:31.327Z,97943.13
2023-01-11T23:51:58.836Z,97953.59
2023-01-11T23:54:30.505Z,97949.31
2023-01-11T23:56:58.004Z,97945.63
2023-01-11T23:59:24.728Z,97940.84
